Meath Environmental Platform

Observations for Trim Patrick St

Time AQI Temp °C Hum % Pres Pa CO μg/m³ H₂S μg/m³ NO μg/m³ NO₂ μg/m³ O₃ μg/m³ SO₂ μg/m³ PM1 μg/m³ PM2.5 μg/m³ PM10 μg/m³
Wednesday 26 August 2026
21:29 3 18.2 74 38,460 0 12.85 0.82 32.05 55.42 0.14 16.57 23.38 25.72
21:28 3 18.2 74 38,460 0 13.01 1.03 35.66 54.03 0.11 16.57 22.67 24.94
21:27 3 18.2 74 38,460 0 12.69 1.01 35.29 53.1 0.64 18.29 25.53 28.08
21:26 3 18.3 74 38,460 0 12.43 1.02 36.63 52.14 0.48 17.43 24.13 26.54
21:25 3 18.3 74 38,460 0 14.19 1.21 41.29 42.81 1.2 15.71 23.42 25.76
21:24 3 18.3 74 38,460 0 14.55 1.31 55.9 44.78 0 15.71 22.06 24.27
21:23 3 18.4 74 38,460 0 12.27 1.1 35.8 51.9 0.64 14 22.05 24.25
21:22 3 18.4 73 38,460 0 15.08 1.16 37.2 48.66 0.29 16.57 24.23 26.65
21:21 3 18.5 72 38,460 0 16.34 1.12 58.62 53.09 0 18.29 25.83 28.41
21:20 3 18.5 73 38,460 0 15.08 0.87 55.06 34.43 0.44 15.71 22.08 24.29
21:19 3 18.5 73 38,460 0 16.13 0.84 53.23 53.57 0 17.43 24.26 26.69
21:18 3 18.5 73 38,460 0 16.13 0.79 51.79 51.41 0.11 19.14 26.44 29.09
21:17 3 18.6 73 38,460 0 15.11 0.8 48.89 48.57 1.01 17.43 25.69 28.26
21:16 3 18.6 73 38,460 0 15.08 0.88 38.85 53.28 1.12 15.71 21.43 23.57
21:15 3 18.7 73 38,460 0 15.53 0.97 48.11 52.12 0 16.57 22.88 25.17
21:14 3 18.7 72 38,460 0 17.05 0.91 42.74 58.67 0.19 17.43 25.05 27.56
21:13 3 18.7 72 38,460 0 14.24 0.94 48.48 50.02 0 15.71 22.22 24.44
21:12 3 18.8 72 38,459 0 15.84 0.82 45.92 52.23 0.63 14.86 22.91 25.21
21:11 3 18.8 72 38,459 0 16.23 0.78 52.02 54.04 0.01 14.86 22.23 24.46
21:10 3 18.8 72 38,459 0 13.77 0.71 39.48 56.65 0.55 15.71 22.23 24.46